Time;durP1;ratioP1;P1;durP2;ratioP2;P2;SDS_P1;SDS_P2;PMS_P1;PMS_P2;Temp;Humidity;BMP_temperature;BMP_pressure;BME280_temperature;BME280_humidity;BME280_pressure;Samples;Min_cycle;Max_cycle;Signal;HPM_P1;HPM_P2
2022/04/12 00:00:38;;;;;;;13.13;2.45;;;;;;;;;;4945549;29;20022;-73
2022/04/12 00:03:05;;;;;;;17.42;2.33;;;;;;;;;;4936099;29;20031;-73
2022/04/12 00:05:33;;;;;;;14.88;2.30;;;;;;;;;;4951579;29;20042;-72
2022/04/12 00:07:59;;;;;;;11.82;2.08;;;;;;;;;;4951028;29;20028;-72
2022/04/12 00:10:26;;;;;;;12.60;1.83;;;;;;;;;;4951045;29;20034;-72
2022/04/12 00:12:52;;;;;;;15.73;2.05;;;;;;;;;;4950907;29;20038;-72
2022/04/12 00:15:19;;;;;;;14.07;2.25;;;;;;;;;;4942722;29;20036;-73
2022/04/12 00:20:31;;;;;;;11.23;2.03;;;;;;;;;;4952054;29;20035;-72
2022/04/12 00:22:58;;;;;;;14.40;1.85;;;;;;;;;;4950932;29;20476;-72
2022/04/12 00:25:25;;;;;;;11.65;2.00;;;;;;;;;;4950730;29;20492;-73
2022/04/12 00:27:52;;;;;;;6.85;1.50;;;;;;;;;;4950544;29;20420;-72
2022/04/12 00:30:19;;;;;;;11.82;1.98;;;;;;;;;;4952721;29;20024;-73
2022/04/12 00:32:46;;;;;;;14.30;2.15;;;;;;;;;;4951989;29;20481;-72
2022/04/12 00:35:13;;;;;;;12.18;1.60;;;;;;;;;;4952591;29;20023;-73
2022/04/12 00:37:40;;;;;;;12.95;1.60;;;;;;;;;;4950786;29;20043;-73
2022/04/12 00:40:06;;;;;;;9.88;1.65;;;;;;;;;;4936693;29;20038;-73
2022/04/12 00:42:33;;;;;;;10.45;1.65;;;;;;;;;;4951072;29;20030;-72
2022/04/12 00:44:59;;;;;;;14.93;2.03;;;;;;;;;;4952935;29;20089;-73
2022/04/12 00:47:25;;;;;;;11.60;2.45;;;;;;;;;;4950865;29;20024;-72
2022/04/12 00:49:52;;;;;;;6.70;1.90;;;;;;;;;;4950966;29;20035;-72
2022/04/12 00:52:19;;;;;;;12.20;2.00;;;;;;;;;;4938620;29;20023;-72
2022/04/12 00:54:45;;;;;;;11.00;2.22;;;;;;;;;;4954030;29;20026;-72
2022/04/12 00:57:12;;;;;;;7.50;2.13;;;;;;;;;;4956075;29;20424;-73
2022/04/12 00:59:39;;;;;;;8.75;1.40;;;;;;;;;;4954903;29;20033;-72
2022/04/12 01:02:06;;;;;;;8.20;1.65;;;;;;;;;;4953848;29;20019;-72
2022/04/12 01:04:32;;;;;;;12.68;1.63;;;;;;;;;;4954139;29;20062;-72
2022/04/12 01:07:00;;;;;;;7.65;1.50;;;;;;;;;;4954074;29;20031;-72
2022/04/12 01:09:26;;;;;;;11.45;1.67;;;;;;;;;;4954616;29;20031;-72
2022/04/12 01:11:57;;;;;;;7.68;1.67;;;;;;;;;;4955403;29;20435;-73
2022/04/12 01:14:24;;;;;;;9.02;1.40;;;;;;;;;;4954280;29;20039;-72
2022/04/12 01:16:51;;;;;;;11.48;1.65;;;;;;;;;;4953194;29;20027;-73
2022/04/12 01:19:17;;;;;;;14.50;1.58;;;;;;;;;;4953800;29;20033;-72
2022/04/12 01:21:54;;;;;;;8.85;1.67;;;;;;;;;;4953778;29;20020;-72
2022/04/12 01:24:21;;;;;;;6.95;1.45;;;;;;;;;;4940575;29;20035;-73
2022/04/12 01:26:47;;;;;;;14.50;1.45;;;;;;;;;;4954716;29;20484;-72
2022/04/12 01:29:14;;;;;;;7.35;1.33;;;;;;;;;;4953629;29;20058;-72
2022/04/12 01:31:41;;;;;;;12.52;2.05;;;;;;;;;;4953247;29;20027;-72
2022/04/12 01:34:07;;;;;;;14.30;1.65;;;;;;;;;;4953604;29;20058;-72
2022/04/12 01:36:33;;;;;;;8.65;1.52;;;;;;;;;;4953355;29;20023;-72
2022/04/12 01:39:00;;;;;;;8.25;1.83;;;;;;;;;;4954218;29;20035;-72
2022/04/12 01:41:26;;;;;;;6.82;1.30;;;;;;;;;;4953868;29;20032;-72
2022/04/12 01:43:52;;;;;;;8.90;1.42;;;;;;;;;;4953143;29;20027;-72
2022/04/12 01:46:19;;;;;;;7.57;1.42;;;;;;;;;;4952975;29;20039;-72
2022/04/12 01:48:47;;;;;;;5.97;1.35;;;;;;;;;;4953230;29;20030;-72
2022/04/12 01:51:13;;;;;;;6.18;1.38;;;;;;;;;;4955194;29;20023;-72
2022/04/12 01:53:40;;;;;;;5.38;1.30;;;;;;;;;;4953723;29;20396;-72
2022/04/12 01:56:06;;;;;;;8.48;1.20;;;;;;;;;;4940026;29;20023;-72
2022/04/12 01:58:33;;;;;;;5.13;1.13;;;;;;;;;;4952958;29;20035;-72
2022/04/12 02:01:00;;;;;;;7.75;1.52;;;;;;;;;;4952602;29;20016;-72
2022/04/12 02:03:26;;;;;;;10.90;1.30;;;;;;;;;;4952846;28;20057;-72
2022/04/12 02:05:54;;;;;;;7.03;1.50;;;;;;;;;;4954362;29;20035;-72
2022/04/12 02:08:21;;;;;;;7.55;1.23;;;;;;;;;;4953365;29;20024;-73
2022/04/12 02:10:47;;;;;;;5.53;1.20;;;;;;;;;;4952918;29;20035;-72
2022/04/12 02:13:16;;;;;;;5.15;1.13;;;;;;;;;;4952646;29;20019;-72
2022/04/12 02:15:42;;;;;;;12.70;1.92;;;;;;;;;;4952522;29;20024;-72
2022/04/12 02:18:09;;;;;;;6.93;1.20;;;;;;;;;;4954437;29;20047;-72
2022/04/12 02:20:35;;;;;;;11.65;1.25;;;;;;;;;;4953018;29;20061;-72
2022/04/12 02:23:02;;;;;;;10.02;1.77;;;;;;;;;;4952558;29;20041;-72
2022/04/12 02:25:28;;;;;;;6.07;1.50;;;;;;;;;;4952516;29;20070;-72
2022/04/12 02:27:55;;;;;;;7.93;1.38;;;;;;;;;;4952438;29;20525;-72
2022/04/12 02:30:21;;;;;;;9.50;1.48;;;;;;;;;;4944282;29;20027;-72
2022/04/12 02:32:48;;;;;;;11.48;2.25;;;;;;;;;;4954717;29;20392;-72
2022/04/12 02:35:14;;;;;;;8.18;1.30;;;;;;;;;;4952812;29;20023;-72
2022/04/12 02:37:40;;;;;;;7.60;1.65;;;;;;;;;;4934613;29;20526;-72
2022/04/12 02:40:08;;;;;;;9.90;1.65;;;;;;;;;;4952236;29;20081;-72
2022/04/12 02:42:34;;;;;;;8.45;1.40;;;;;;;;;;4952435;29;20034;-72
2022/04/12 02:45:01;;;;;;;6.85;1.20;;;;;;;;;;4954015;29;20061;-72
2022/04/12 02:47:28;;;;;;;4.47;1.08;;;;;;;;;;4953362;29;20035;-73
2022/04/12 02:49:54;;;;;;;10.43;1.40;;;;;;;;;;4951923;29;20023;-72
2022/04/12 02:52:21;;;;;;;6.45;1.58;;;;;;;;;;4952121;29;20028;-72
2022/04/12 02:54:47;;;;;;;10.48;1.45;;;;;;;;;;4952019;29;20020;-73
2022/04/12 02:57:15;;;;;;;13.65;1.40;;;;;;;;;;4953913;29;20400;-72
2022/04/12 02:59:41;;;;;;;10.77;1.60;;;;;;;;;;4950069;29;20031;-73
2022/04/12 03:02:07;;;;;;;6.93;1.40;;;;;;;;;;4951667;29;20372;-72
2022/04/12 03:04:34;;;;;;;11.48;1.73;;;;;;;;;;4951592;29;20027;-72
2022/04/12 03:07:00;;;;;;;8.05;1.00;;;;;;;;;;4951947;29;20027;-73
2022/04/12 03:09:26;;;;;;;12.68;1.50;;;;;;;;;;4952249;29;20029;-73
2022/04/12 03:11:53;;;;;;;6.13;1.50;;;;;;;;;;4953303;29;20388;-72
2022/04/12 03:14:19;;;;;;;5.95;1.30;;;;;;;;;;4951574;28;20015;-72
2022/04/12 03:16:45;;;;;;;14.15;1.38;;;;;;;;;;4951258;29;20481;-73
2022/04/12 03:19:12;;;;;;;11.85;1.88;;;;;;;;;;4951301;29;20039;-72
2022/04/12 03:21:38;;;;;;;8.77;1.38;;;;;;;;;;4951498;29;20024;-72
2022/04/12 03:24:04;;;;;;;8.90;1.58;;;;;;;;;;4953536;29;20039;-72
2022/04/12 03:26:31;;;;;;;8.32;1.63;;;;;;;;;;4951794;29;20027;-72
2022/04/12 03:28:58;;;;;;;7.88;1.42;;;;;;;;;;4950817;29;20043;-72
2022/04/12 03:31:24;;;;;;;5.07;1.40;;;;;;;;;;4951365;29;20411;-72
2022/04/12 03:33:50;;;;;;;9.50;1.80;;;;;;;;;;4947140;29;20027;-73
2022/04/12 03:36:17;;;;;;;7.13;1.60;;;;;;;;;;4953321;29;20023;-72
2022/04/12 03:38:48;;;;;;;7.88;1.73;;;;;;;;;;4950836;29;20043;-72
2022/04/12 03:41:14;;;;;;;;;;;;;;;;;;4951921;29;20481;-72
2022/04/12 03:43:40;;;;;;;6.25;1.23;;;;;;;;;;4950906;29;19916;-72
2022/04/12 03:46:07;;;;;;;8.05;1.50;;;;;;;;;;4951315;29;20038;-72
2022/04/12 03:48:33;;;;;;;5.70;1.20;;;;;;;;;;4951172;29;20020;-72
2022/04/12 03:50:59;;;;;;;8.23;1.35;;;;;;;;;;4953392;29;20507;-72
2022/04/12 03:53:25;;;;;;;6.97;1.35;;;;;;;;;;4951707;29;20470;-72
2022/04/12 03:55:52;;;;;;;8.45;1.45;;;;;;;;;;4950783;29;20119;-72
2022/04/12 03:58:19;;;;;;;8.75;1.50;;;;;;;;;;4951135;29;20031;-73
2022/04/12 04:00:46;;;;;;;14.38;2.08;;;;;;;;;;4951083;29;20016;-72
2022/04/12 04:03:12;;;;;;;5.88;1.33;;;;;;;;;;4952081;29;20039;-72
2022/04/12 04:05:39;;;;;;;8.80;1.58;;;;;;;;;;4951612;29;20029;-72
2022/04/12 04:08:05;;;;;;;12.60;1.80;;;;;;;;;;4950948;29;20033;-72
2022/04/12 04:10:31;;;;;;;11.63;1.73;;;;;;;;;;4950839;29;20027;-72
2022/04/12 04:12:58;;;;;;;7.53;1.33;;;;;;;;;;4951034;29;20522;-72
2022/04/12 04:15:24;;;;;;;7.80;1.40;;;;;;;;;;4952164;29;20019;-72
2022/04/12 04:17:51;;;;;;;8.35;1.40;;;;;;;;;;4952373;29;20043;-72
2022/04/12 04:20:18;;;;;;;5.47;1.20;;;;;;;;;;4952850;29;20033;-72
2022/04/12 04:22:45;;;;;;;7.47;1.50;;;;;;;;;;4950764;29;20035;-72
2022/04/12 04:25:12;;;;;;;9.43;1.50;;;;;;;;;;4950472;29;20485;-72
2022/04/12 04:27:41;;;;;;;7.32;1.30;;;;;;;;;;4952472;28;20082;-72
2022/04/12 04:30:08;;;;;;;5.93;1.33;;;;;;;;;;4956551;29;20049;-73
2022/04/12 04:32:35;;;;;;;7.28;1.52;;;;;;;;;;4954902;29;20036;-73
2022/04/12 04:35:02;;;;;;;6.65;2.08;;;;;;;;;;4954658;29;20027;-72
2022/04/12 04:37:28;;;;;;;6.70;1.20;;;;;;;;;;4954253;29;20769;-73
2022/04/12 04:39:55;;;;;;;7.85;1.48;;;;;;;;;;4953979;29;20514;-72
2022/04/12 04:42:23;;;;;;;6.60;1.23;;;;;;;;;;4955910;29;20027;-72
2022/04/12 04:44:49;;;;;;;8.38;1.52;;;;;;;;;;4955698;29;20035;-72
2022/04/12 04:47:16;;;;;;;8.38;1.52;;;;;;;;;;4954446;29;20404;-73
2022/04/12 04:49:42;;;;;;;4.25;1.05;;;;;;;;;;4954279;29;20023;-72
2022/04/12 04:52:08;;;;;;;8.27;1.30;;;;;;;;;;4954043;29;20031;-72
2022/04/12 04:54:35;;;;;;;6.43;1.50;;;;;;;;;;4954153;29;20027;-72
2022/04/12 04:57:01;;;;;;;5.50;1.08;;;;;;;;;;4956136;29;20404;-73
2022/04/12 04:59:27;;;;;;;9.38;1.65;;;;;;;;;;4954426;29;20087;-72
2022/04/12 05:01:54;;;;;;;4.88;1.20;;;;;;;;;;4953884;29;20025;-72
2022/04/12 05:04:20;;;;;;;5.45;1.40;;;;;;;;;;4954170;29;20028;-72
2022/04/12 05:06:46;;;;;;;8.05;1.63;;;;;;;;;;4953790;29;20030;-72
2022/04/12 05:09:13;;;;;;;6.40;1.75;;;;;;;;;;4955588;29;20027;-72
2022/04/12 05:11:39;;;;;;;8.07;1.27;;;;;;;;;;4954510;29;20031;-72
2022/04/12 05:14:06;;;;;;;4.80;1.33;;;;;;;;;;4953624;29;20031;-72
2022/04/12 05:16:32;;;;;;;5.50;1.38;;;;;;;;;;4953880;29;20016;-72
2022/04/12 05:18:58;;;;;;;6.43;1.05;;;;;;;;;;4953547;29;20039;-73
2022/04/12 05:21:25;;;;;;;5.15;1.00;;;;;;;;;;4954603;29;20049;-72
2022/04/12 05:23:51;;;;;;;8.80;1.42;;;;;;;;;;4954782;29;20382;-72
2022/04/12 05:26:17;;;;;;;11.10;2.10;;;;;;;;;;4955039;29;20027;-72
2022/04/12 05:28:44;;;;;;;9.13;1.50;;;;;;;;;;4953134;29;20397;-72
2022/04/12 05:31:10;;;;;;;6.78;1.20;;;;;;;;;;4953416;29;20019;-73
2022/04/12 05:33:36;;;;;;;7.65;1.27;;;;;;;;;;4947575;29;20038;-72
2022/04/12 05:36:03;;;;;;;9.15;1.27;;;;;;;;;;4955282;29;20038;-72
2022/04/12 05:38:29;;;;;;;8.93;2.00;;;;;;;;;;4953557;28;20039;-72
2022/04/12 05:40:56;;;;;;;4.63;1.17;;;;;;;;;;4953296;29;20377;-73
2022/04/12 05:43:22;;;;;;;7.85;1.17;;;;;;;;;;4953282;29;20034;-72
2022/04/12 05:45:48;;;;;;;11.65;1.63;;;;;;;;;;4952799;29;20401;-73
2022/04/12 05:48:15;;;;;;;6.05;1.25;;;;;;;;;;4955290;29;20030;-72
2022/04/12 05:50:41;;;;;;;4.25;1.60;;;;;;;;;;4955795;29;20038;-72
2022/04/12 05:53:08;;;;;;;11.07;4.15;;;;;;;;;;4952413;29;20035;-72
2022/04/12 05:55:34;;;;;;;6.95;1.48;;;;;;;;;;4948013;29;20054;-72
2022/04/12 05:58:03;;;;;;;10.77;1.80;;;;;;;;;;4946108;29;20456;-72
2022/04/12 06:00:30;;;;;;;8.32;1.45;;;;;;;;;;4953379;29;20078;-72
2022/04/12 06:02:56;;;;;;;4.07;1.10;;;;;;;;;;4954725;29;20027;-72
2022/04/12 06:05:24;;;;;;;3.35;1.17;;;;;;;;;;4954308;29;20030;-72
2022/04/12 06:07:50;;;;;;;11.27;1.17;;;;;;;;;;4937392;29;20395;-74
2022/04/12 06:10:17;;;;;;;6.38;1.40;;;;;;;;;;4952805;29;20440;-74
2022/04/12 06:12:44;;;;;;;6.38;1.60;;;;;;;;;;4951300;29;20104;-75
2022/04/12 06:15:11;;;;;;;6.50;1.20;;;;;;;;;;4953107;29;20046;-74
2022/04/12 06:17:38;;;;;;;6.72;1.45;;;;;;;;;;4950370;29;20043;-74
2022/04/12 06:20:04;;;;;;;5.63;1.08;;;;;;;;;;4952954;29;20410;-74
2022/04/12 06:22:31;;;;;;;6.93;1.23;;;;;;;;;;4951781;29;20053;-74
2022/04/12 06:24:57;;;;;;;5.93;1.38;;;;;;;;;;4928514;29;20027;-74
2022/04/12 06:27:30;;;;;;;13.10;2.28;;;;;;;;;;4946336;29;20411;-74
2022/04/12 06:29:57;;;;;;;9.48;1.20;;;;;;;;;;4954130;29;20039;-74
2022/04/12 06:32:23;;;;;;;6.85;1.23;;;;;;;;;;4951990;29;20514;-74
2022/04/12 06:34:50;;;;;;;12.27;1.20;;;;;;;;;;4951702;29;20440;-74
2022/04/12 06:37:16;;;;;;;4.43;0.95;;;;;;;;;;4951589;29;20492;-75
2022/04/12 06:39:43;;;;;;;3.88;1.08;;;;;;;;;;4953708;28;20097;-74
2022/04/12 06:42:09;;;;;;;7.22;1.02;;;;;;;;;;4952708;29;20049;-74
2022/04/12 06:44:37;;;;;;;6.90;1.05;;;;;;;;;;4945284;29;20796;-74
2022/04/12 06:47:03;;;;;;;5.50;1.02;;;;;;;;;;4945996;29;20030;-74
2022/04/12 06:49:29;;;;;;;7.47;1.25;;;;;;;;;;4942790;28;20035;-74
2022/04/12 06:51:56;;;;;;;7.43;1.17;;;;;;;;;;4944874;29;20042;-75
2022/04/12 06:54:22;;;;;;;9.07;1.33;;;;;;;;;;4942097;29;20019;-74
2022/04/12 06:56:48;;;;;;;6.30;1.17;;;;;;;;;;4943508;28;20035;-74
2022/04/12 06:59:16;;;;;;;5.28;0.93;;;;;;;;;;4951093;29;20047;-74
2022/04/12 07:01:42;;;;;;;4.82;1.13;;;;;;;;;;4933429;29;20031;-74
2022/04/12 07:04:09;;;;;;;6.00;1.20;;;;;;;;;;4951103;29;20037;-74
2022/04/12 07:06:36;;;;;;;11.07;1.55;;;;;;;;;;4951205;29;20024;-74
2022/04/12 07:09:05;;;;;;;6.47;0.90;;;;;;;;;;4953190;29;20050;-72
2022/04/12 07:11:31;;;;;;;7.78;1.65;;;;;;;;;;4951491;29;20020;-72
2022/04/12 07:13:58;;;;;;;9.93;1.10;;;;;;;;;;4950978;29;20086;-72
2022/04/12 07:16:24;;;;;;;6.85;1.05;;;;;;;;;;4951161;29;20069;-72
2022/04/12 07:18:50;;;;;;;7.82;1.30;;;;;;;;;;4950689;29;20041;-72
2022/04/12 07:21:21;;;;;;;7.22;1.50;;;;;;;;;;4952475;29;20309;-72
2022/04/12 07:23:50;;;;;;;4.33;1.03;;;;;;;;;;4952198;29;20019;-72
2022/04/12 07:26:17;;;;;;;4.43;0.88;;;;;;;;;;4951116;29;20033;-72
2022/04/12 07:28:43;;;;;;;10.02;1.30;;;;;;;;;;4950620;29;20053;-72
2022/04/12 07:31:10;;;;;;;7.95;1.25;;;;;;;;;;4950668;29;20051;-73
2022/04/12 07:33:36;;;;;;;4.47;1.17;;;;;;;;;;4950600;29;20041;-72
2022/04/12 07:36:03;;;;;;;5.93;1.15;;;;;;;;;;4951855;29;20025;-72
2022/04/12 07:38:29;;;;;;;3.83;0.70;;;;;;;;;;4951783;29;20035;-72
2022/04/12 07:40:56;;;;;;;7.00;1.20;;;;;;;;;;4951938;29;20035;-72
2022/04/12 07:43:22;;;;;;;5.15;1.08;;;;;;;;;;4950426;29;20439;-72
2022/04/12 07:45:49;;;;;;;4.70;1.20;;;;;;;;;;4950154;29;20016;-72
2022/04/12 07:48:15;;;;;;;12.88;1.10;;;;;;;;;;4952656;29;20045;-72
2022/04/12 07:50:41;;;;;;;8.60;1.23;;;;;;;;;;4951067;29;20485;-72
2022/04/12 07:53:08;;;;;;;6.10;1.17;;;;;;;;;;4950229;29;20031;-73
2022/04/12 07:55:34;;;;;;;8.55;1.30;;;;;;;;;;4950588;29;20026;-73
2022/04/12 07:58:00;;;;;;;5.35;1.52;;;;;;;;;;4949861;29;20054;-73
2022/04/12 08:00:27;;;;;;;5.05;1.30;;;;;;;;;;4951370;29;20032;-73
2022/04/12 08:02:53;;;;;;;4.38;1.17;;;;;;;;;;4954185;28;20288;-73
2022/04/12 08:05:20;;;;;;;4.68;1.10;;;;;;;;;;4954911;29;20057;-73
2022/04/12 08:07:50;;;;;;;4.00;0.88;;;;;;;;;;4954484;29;20020;-73
2022/04/12 08:10:17;;;;;;;8.02;1.00;;;;;;;;;;4954287;29;20245;-73
2022/04/12 08:12:43;;;;;;;3.70;1.20;;;;;;;;;;4954432;29;20027;-73
2022/04/12 08:15:11;;;;;;;6.78;1.20;;;;;;;;;;4956080;29;20143;-73
2022/04/12 08:17:37;;;;;;;7.18;1.00;;;;;;;;;;4954588;29;20027;-73
2022/04/12 08:20:05;;;;;;;4.43;1.20;;;;;;;;;;4953925;29;20027;-73
2022/04/12 08:22:32;;;;;;;4.80;1.10;;;;;;;;;;4934688;29;20140;-73
2022/04/12 08:24:59;;;;;;;3.40;1.00;;;;;;;;;;4956117;29;20493;-73
2022/04/12 08:27:25;;;;;;;7.00;1.40;;;;;;;;;;4954404;29;20600;-73
2022/04/12 08:29:52;;;;;;;4.60;1.25;;;;;;;;;;4954659;29;20043;-73
2022/04/12 08:32:18;;;;;;;9.00;1.35;;;;;;;;;;4955087;29;20037;-73
2022/04/12 08:34:45;;;;;;;5.13;1.35;;;;;;;;;;4954473;29;20030;-73
2022/04/12 08:37:12;;;;;;;4.63;1.17;;;;;;;;;;4953803;29;20035;-73
2022/04/12 08:39:38;;;;;;;7.57;1.25;;;;;;;;;;4949611;29;20050;-73
2022/04/12 08:42:05;;;;;;;10.05;1.60;;;;;;;;;;4955700;29;20023;-73
2022/04/12 08:44:33;;;;;;;9.90;1.40;;;;;;;;;;4954502;29;20105;-73
2022/04/12 08:47:02;;;;;;;4.68;1.20;;;;;;;;;;4934206;29;20501;-73
2022/04/12 08:49:29;;;;;;;9.73;1.40;;;;;;;;;;4953566;29;20031;-73
2022/04/12 08:51:55;;;;;;;5.60;1.27;;;;;;;;;;4954820;29;20554;-73
2022/04/12 08:54:22;;;;;;;7.50;1.33;;;;;;;;;;4954831;29;20527;-73
2022/04/12 08:56:49;;;;;;;5.57;1.30;;;;;;;;;;4954930;29;20023;-73
2022/04/12 08:59:16;;;;;;;6.47;1.10;;;;;;;;;;4952254;29;20031;-73
2022/04/12 09:01:43;;;;;;;5.43;1.27;;;;;;;;;;4954802;29;20038;-74
2022/04/12 09:04:09;;;;;;;6.22;1.08;;;;;;;;;;4953230;29;20031;-73
2022/04/12 09:06:36;;;;;;;5.72;1.10;;;;;;;;;;4953520;29;20031;-73
2022/04/12 09:09:11;;;;;;;10.30;1.55;;;;;;;;;;4954362;29;20023;-74
2022/04/12 09:11:40;;;;;;;6.60;1.25;;;;;;;;;;4953907;29;20499;-73
2022/04/12 09:14:07;;;;;;;4.85;1.65;;;;;;;;;;4953423;28;20031;-73
2022/04/12 09:16:35;;;;;;;4.00;1.48;;;;;;;;;;4952794;29;20035;-73
2022/04/12 09:19:01;;;;;;;4.45;1.10;;;;;;;;;;4953330;29;20039;-73
2022/04/12 09:21:30;;;;;;;3.65;1.17;;;;;;;;;;4954081;29;20031;-74
2022/04/12 09:23:58;;;;;;;18.35;1.50;;;;;;;;;;4949345;29;20555;-73
2022/04/12 09:26:26;;;;;;;4.63;1.40;;;;;;;;;;4952084;29;20019;-74
2022/04/12 09:28:53;;;;;;;5.43;1.20;;;;;;;;;;4951808;29;20047;-74
2022/04/12 09:31:20;;;;;;;4.95;1.02;;;;;;;;;;4949266;29;20031;-74
2022/04/12 09:33:47;;;;;;;3.53;0.85;;;;;;;;;;4952165;29;20030;-73
2022/04/12 09:36:14;;;;;;;5.47;1.30;;;;;;;;;;4944286;28;20056;-73
2022/04/12 09:38:41;;;;;;;4.88;1.08;;;;;;;;;;4948865;29;20408;-74
2022/04/12 09:41:11;;;;;;;3.15;0.93;;;;;;;;;;4951806;29;20053;-73
2022/04/12 09:43:56;;;;;;;8.27;1.15;;;;;;;;;;4941770;29;20035;-73
2022/04/12 09:46:23;;;;;;;8.07;1.20;;;;;;;;;;4945755;29;20394;-73
2022/04/12 09:48:50;;;;;;;3.60;0.85;;;;;;;;;;4949041;29;20551;-73
2022/04/12 09:51:17;;;;;;;3.80;1.25;;;;;;;;;;4947728;29;20030;-73
2022/04/12 09:53:47;;;;;;;9.70;1.42;;;;;;;;;;4950859;29;20038;-73
2022/04/12 09:56:15;;;;;;;9.63;1.30;;;;;;;;;;4944769;29;20035;-73
2022/04/12 09:58:42;;;;;;;3.55;0.93;;;;;;;;;;4949769;28;20039;-73
2022/04/12 10:01:10;;;;;;;6.80;1.15;;;;;;;;;;4947105;29;20492;-73
2022/04/12 10:03:37;;;;;;;4.25;1.00;;;;;;;;;;4949547;29;20032;-73
2022/04/12 10:06:04;;;;;;;2.17;0.80;;;;;;;;;;4952130;29;20034;-73
2022/04/12 10:08:34;;;;;;;4.65;0.88;;;;;;;;;;4947318;29;20029;-74
2022/04/12 10:11:01;;;;;;;13.85;7.47;;;;;;;;;;4943494;29;20078;-74
2022/04/12 10:13:30;;;;;;;5.95;2.03;;;;;;;;;;4952162;28;20029;-73
2022/04/12 10:15:56;;;;;;;9.30;1.13;;;;;;;;;;4949402;29;20023;-73
2022/04/12 10:18:23;;;;;;;6.30;1.42;;;;;;;;;;4949312;29;20090;-74
2022/04/12 10:20:49;;;;;;;3.28;0.90;;;;;;;;;;4953073;29;20382;-73
2022/04/12 10:23:17;;;;;;;5.65;1.13;;;;;;;;;;4944824;29;20035;-73
2022/04/12 10:25:44;;;;;;;3.45;0.80;;;;;;;;;;4951896;28;20015;-73
2022/04/12 10:28:11;;;;;;;13.05;2.50;;;;;;;;;;4943441;29;20047;-73
2022/04/12 10:30:38;;;;;;;6.63;0.90;;;;;;;;;;4966651;28;20041;-73
2022/04/12 10:33:08;;;;;;;5.22;1.00;;;;;;;;;;4953714;28;20023;-74
2022/04/12 10:35:47;;;;;;;8.70;1.00;;;;;;;;;;4948327;29;20035;-73
2022/04/12 10:38:14;;;;;;;5.20;1.27;;;;;;;;;;4946888;29;20067;-73
2022/04/12 10:40:44;;;;;;;3.20;0.90;;;;;;;;;;4951154;29;20037;-73
2022/04/12 10:43:14;;;;;;;2.97;1.50;;;;;;;;;;4945530;29;20031;-73
2022/04/12 10:45:50;;;;;;;6.13;0.95;;;;;;;;;;4948901;29;20029;-73
2022/04/12 10:48:25;;;;;;;7.25;1.00;;;;;;;;;;4932943;29;20481;-74
2022/04/12 10:51:01;;;;;;;4.75;1.25;;;;;;;;;;4948936;28;20040;-73
2022/04/12 10:53:36;;;;;;;2.58;1.00;;;;;;;;;;4951248;28;20034;-74
2022/04/12 10:56:10;;;;;;;5.15;1.20;;;;;;;;;;4943116;29;20023;-74
2022/04/12 10:58:36;;;;;;;10.65;1.10;;;;;;;;;;4946936;29;20047;-75
2022/04/12 11:01:04;;;;;;;3.67;1.00;;;;;;;;;;4940203;29;20030;-73
2022/04/12 11:03:45;;;;;;;5.50;1.52;;;;;;;;;;4948766;29;20028;-74
2022/04/12 11:06:12;;;;;;;7.80;1.20;;;;;;;;;;4940358;29;20030;-73
2022/04/12 11:08:39;;;;;;;4.07;1.30;;;;;;;;;;4951579;29;20035;-73
2022/04/12 11:11:06;;;;;;;4.95;1.15;;;;;;;;;;4942920;29;20027;-74
2022/04/12 11:13:33;;;;;;;4.35;1.10;;;;;;;;;;4951473;29;20035;-73
2022/04/12 11:16:07;;;;;;;5.60;0.90;;;;;;;;;;4950880;28;20030;-74
2022/04/12 11:18:48;;;;;;;4.35;1.10;;;;;;;;;;4948472;29;20405;-74
2022/04/12 11:21:15;;;;;;;8.25;1.13;;;;;;;;;;4940335;29;20508;-74
2022/04/12 11:23:49;;;;;;;5.80;1.20;;;;;;;;;;4951171;28;20106;-74
2022/04/12 11:26:34;;;;;;;4.80;1.42;;;;;;;;;;4950249;29;20027;-73
2022/04/12 11:29:01;;;;;;;6.38;1.10;;;;;;;;;;4941547;29;20055;-74
2022/04/12 11:31:27;;;;;;;11.13;1.70;;;;;;;;;;4950446;29;20034;-74
2022/04/12 11:33:54;;;;;;;6.72;1.00;;;;;;;;;;4934977;29;20023;-74
2022/04/12 11:36:20;;;;;;;6.78;1.20;;;;;;;;;;4952277;28;20031;-74
2022/04/12 11:38:50;;;;;;;7.70;1.45;;;;;;;;;;4951627;29;20043;-73
2022/04/12 11:41:16;;;;;;;11.35;1.23;;;;;;;;;;4947596;29;20031;-74
2022/04/12 11:43:42;;;;;;;17.08;1.58;;;;;;;;;;4950256;29;20039;-73
2022/04/12 11:46:16;;;;;;;3.80;0.90;;;;;;;;;;4933420;29;20042;-73
2022/04/12 11:48:42;;;;;;;6.95;1.13;;;;;;;;;;4948377;29;20034;-73
2022/04/12 11:51:09;;;;;;;10.07;1.45;;;;;;;;;;4950387;29;20392;-73
2022/04/12 11:53:46;;;;;;;3.25;1.25;;;;;;;;;;4950991;29;20045;-73
2022/04/12 11:56:12;;;;;;;4.50;1.35;;;;;;;;;;4949940;29;20035;-72
2022/04/12 11:58:39;;;;;;;4.65;1.25;;;;;;;;;;4950831;29;20393;-73
2022/04/12 12:01:05;;;;;;;5.45;1.02;;;;;;;;;;4942476;29;20047;-73
2022/04/12 12:03:31;;;;;;;9.80;1.50;;;;;;;;;;4947403;29;20038;-72
2022/04/12 12:05:58;;;;;;;9.00;1.33;;;;;;;;;;4950557;29;20503;-73
2022/04/12 12:08:24;;;;;;;6.43;1.20;;;;;;;;;;4950274;29;20035;-73
2022/04/12 12:10:56;;;;;;;5.32;1.10;;;;;;;;;;4951098;29;20030;-73
2022/04/12 12:13:26;;;;;;;6.57;1.27;;;;;;;;;;4949665;29;20027;-73
2022/04/12 12:15:52;;;;;;;7.10;1.13;;;;;;;;;;4949773;29;20383;-73
2022/04/12 12:18:20;;;;;;;5.97;1.42;;;;;;;;;;4950874;29;20037;-73
2022/04/12 12:20:47;;;;;;;6.70;1.20;;;;;;;;;;4950054;29;20055;-72
2022/04/12 12:23:13;;;;;;;4.90;1.23;;;;;;;;;;4950042;29;20027;-73
2022/04/12 12:25:50;;;;;;;5.50;1.45;;;;;;;;;;4949751;29;20032;-72
2022/04/12 12:28:21;;;;;;;4.30;1.42;;;;;;;;;;4956439;28;20043;-72
2022/04/12 12:30:49;;;;;;;3.47;1.30;;;;;;;;;;4966500;28;20027;-72
2022/04/12 12:33:16;;;;;;;3.45;1.30;;;;;;;;;;4965876;28;20454;-72
2022/04/12 12:35:47;;;;;;;7.60;1.50;;;;;;;;;;4971342;28;20480;-72
2022/04/12 12:38:18;;;;;;;3.85;1.38;;;;;;;;;;4969877;28;20037;-72
2022/04/12 12:40:45;;;;;;;6.03;1.15;;;;;;;;;;4967640;28;20031;-72
2022/04/12 12:43:12;;;;;;;4.28;1.10;;;;;;;;;;4966389;28;20031;-73
2022/04/12 12:45:43;;;;;;;6.20;1.15;;;;;;;;;;4968169;28;20028;-73
2022/04/12 12:48:10;;;;;;;4.50;1.30;;;;;;;;;;4969861;28;20038;-72
2022/04/12 12:50:41;;;;;;;6.68;1.60;;;;;;;;;;4970109;28;20092;-72
2022/04/12 12:53:07;;;;;;;;;;;;;;;;;;4967628;28;20415;-73
2022/04/12 12:55:35;;;;;;;4.07;1.25;;;;;;;;;;4972135;28;19914;-72
2022/04/12 12:58:12;;;;;;;6.35;1.52;;;;;;;;;;4972459;28;20046;-72
2022/04/12 13:00:38;;;;;;;4.78;1.20;;;;;;;;;;4971093;28;20031;-72
2022/04/12 13:03:06;;;;;;;7.70;1.60;;;;;;;;;;4970947;28;20388;-73
2022/04/12 13:05:33;;;;;;;5.32;1.63;;;;;;;;;;4970079;28;20030;-73
2022/04/12 13:08:01;;;;;;;22.35;17.15;;;;;;;;;;4968451;28;20030;-73
2022/04/12 13:10:34;;;;;;;7.20;2.33;;;;;;;;;;4972798;28;20015;-73
2022/04/12 13:13:00;;;;;;;5.22;1.55;;;;;;;;;;4969582;28;20042;-73
2022/04/12 13:15:27;;;;;;;9.68;1.55;;;;;;;;;;4971769;28;20043;-73
2022/04/12 13:17:54;;;;;;;4.63;1.40;;;;;;;;;;4969805;28;20613;-73
2022/04/12 13:20:20;;;;;;;34.08;10.18;;;;;;;;;;4973009;28;20138;-73
2022/04/12 13:22:47;;;;;;;6.25;1.27;;;;;;;;;;4970360;28;20076;-73
2022/04/12 13:25:20;;;;;;;11.15;5.78;;;;;;;;;;4970051;28;20022;-73
2022/04/12 13:27:48;;;;;;;5.32;1.30;;;;;;;;;;4972610;28;20043;-73
2022/04/12 13:30:14;;;;;;;6.53;1.33;;;;;;;;;;4972691;28;20389;-73
2022/04/12 13:32:43;;;;;;;7.57;1.90;;;;;;;;;;4972862;28;20184;-73
2022/04/12 13:35:10;;;;;;;7.28;1.45;;;;;;;;;;4968105;28;20136;-73
2022/04/12 13:37:37;;;;;;;10.65;1.80;;;;;;;;;;4967420;28;20492;-73
2022/04/12 13:40:07;;;;;;;14.93;1.77;;;;;;;;;;4968364;28;20042;-73
2022/04/12 13:42:33;;;;;;;11.57;1.30;;;;;;;;;;4955209;28;20399;-73
2022/04/12 13:45:00;;;;;;;14.80;1.98;;;;;;;;;;4972429;28;20042;-73
2022/04/12 13:47:26;;;;;;;10.75;1.67;;;;;;;;;;4967619;28;20030;-73
2022/04/12 13:49:53;;;;;;;6.93;1.42;;;;;;;;;;4967133;28;20045;-73
2022/04/12 13:52:21;;;;;;;7.18;2.05;;;;;;;;;;4970563;28;20022;-73
2022/04/12 13:54:48;;;;;;;10.50;2.00;;;;;;;;;;4971276;28;20500;-73
2022/04/12 13:57:14;;;;;;;11.35;1.80;;;;;;;;;;4971272;28;20053;-73
2022/04/12 13:59:41;;;;;;;16.90;2.78;;;;;;;;;;4970245;28;20045;-72
2022/04/12 14:02:08;;;;;;;12.13;2.38;;;;;;;;;;4971981;28;20025;-73
2022/04/12 14:04:34;;;;;;;10.18;1.98;;;;;;;;;;4967832;28;20023;-73
2022/04/12 14:07:00;;;;;;;10.73;2.03;;;;;;;;;;4969082;28;20019;-72
2022/04/12 14:09:29;;;;;;;14.07;2.50;;;;;;;;;;4969780;28;20033;-72
2022/04/12 14:11:56;;;;;;;5.50;1.73;;;;;;;;;;4969357;28;20065;-73
2022/04/12 14:14:22;;;;;;;16.58;1.85;;;;;;;;;;4968322;28;20035;-72
2022/04/12 14:16:49;;;;;;;7.35;1.58;;;;;;;;;;4967803;28;20027;-72
2022/04/12 14:19:16;;;;;;;8.10;1.50;;;;;;;;;;4967376;28;20427;-72
2022/04/12 14:21:43;;;;;;;14.20;1.88;;;;;;;;;;4968183;28;20053;-71
2022/04/12 14:24:10;;;;;;;14.55;2.03;;;;;;;;;;4970739;28;20037;-73
2022/04/12 14:26:37;;;;;;;7.75;1.70;;;;;;;;;;4967616;28;20033;-73
2022/04/12 14:29:04;;;;;;;9.98;1.58;;;;;;;;;;4969881;28;20061;-72
2022/04/12 14:31:31;;;;;;;19.88;2.55;;;;;;;;;;4967802;28;20023;-72
2022/04/12 14:33:57;;;;;;;8.20;1.85;;;;;;;;;;4966608;28;20039;-72
2022/04/12 14:36:23;;;;;;;13.75;2.13;;;;;;;;;;4971222;28;20031;-73
2022/04/12 14:38:50;;;;;;;35.00;2.97;;;;;;;;;;4970409;28;20041;-72
2022/04/12 14:41:16;;;;;;;14.30;2.17;;;;;;;;;;4968289;28;20498;-73
2022/04/12 14:43:44;;;;;;;10.48;1.98;;;;;;;;;;4967912;28;20403;-72